createdAt,value
2022-08-26T00:01:54.526Z,28.48
2022-08-26T00:04:24.984Z,28.44
2022-08-26T00:06:53.884Z,28.41
2022-08-26T00:09:20.907Z,28.38
2022-08-26T00:11:47.680Z,28.40
2022-08-26T00:14:16.319Z,28.38
2022-08-26T00:16:47.587Z,28.35
2022-08-26T00:19:18.155Z,28.37
2022-08-26T00:21:46.572Z,28.35
2022-08-26T00:24:16.569Z,28.34
2022-08-26T00:26:44.126Z,28.31
2022-08-26T00:29:12.190Z,28.25
2022-08-26T00:31:39.943Z,28.26
2022-08-26T00:34:07.396Z,28.21
2022-08-26T00:36:37.353Z,28.18
2022-08-26T00:39:07.414Z,28.16
2022-08-26T00:41:37.899Z,28.10
2022-08-26T00:44:05.596Z,28.06
2022-08-26T00:46:46.442Z,28.08
2022-08-26T00:49:35.711Z,28.06
2022-08-26T00:52:09.705Z,28.06
2022-08-26T00:54:46.787Z,27.97
2022-08-26T00:57:18.445Z,27.92
2022-08-26T00:59:54.274Z,27.87
2022-08-26T01:02:21.822Z,27.79
2022-08-26T01:04:58.820Z,27.81
2022-08-26T01:07:30.423Z,27.86
2022-08-26T01:10:02.356Z,27.81
2022-08-26T01:12:40.198Z,27.78
2022-08-26T01:15:13.608Z,27.70
2022-08-26T01:17:41.457Z,27.64
2022-08-26T01:20:57.967Z,27.60
2022-08-26T01:23:33.777Z,27.59
2022-08-26T01:26:18.252Z,27.53
2022-08-26T01:28:51.678Z,27.49
2022-08-26T01:31:24.915Z,27.53
2022-08-26T01:34:13.790Z,27.48
2022-08-26T01:36:41.308Z,27.55
2022-08-26T01:39:09.817Z,27.47
2022-08-26T01:41:40.493Z,27.42
2022-08-26T01:44:22.672Z,27.32
2022-08-26T01:46:53.062Z,27.36
2022-08-26T01:49:22.806Z,27.32
2022-08-26T01:51:56.629Z,27.29
2022-08-26T01:54:25.491Z,27.32
2022-08-26T01:56:54.524Z,27.20
2022-08-26T01:59:23.928Z,27.19
2022-08-26T02:01:51.461Z,27.22
2022-08-26T02:04:50.026Z,27.15
2022-08-26T02:07:19.702Z,27.19
2022-08-26T02:09:48.643Z,27.15
2022-08-26T02:12:19.395Z,27.00
2022-08-26T02:14:54.049Z,27.01
2022-08-26T02:17:32.172Z,26.98
2022-08-26T02:19:59.437Z,26.94
2022-08-26T02:22:26.342Z,26.82
2022-08-26T02:25:18.447Z,26.71
2022-08-26T02:27:47.555Z,26.75
2022-08-26T02:30:26.869Z,26.67
2022-08-26T02:32:58.907Z,26.58
2022-08-26T02:35:26.383Z,26.60
2022-08-26T02:37:53.642Z,26.58
2022-08-26T02:40:26.488Z,26.63
2022-08-26T02:42:56.073Z,26.60
2022-08-26T02:45:26.393Z,26.57
2022-08-26T02:47:55.685Z,26.60
2022-08-26T02:50:25.766Z,26.51
2022-08-26T02:52:53.519Z,26.52
2022-08-26T02:55:20.830Z,26.58
2022-08-26T02:57:52.358Z,26.54
2022-08-26T03:00:19.511Z,26.56
2022-08-26T03:02:46.408Z,26.55
2022-08-26T03:05:13.352Z,26.48
2022-08-26T03:07:40.140Z,26.41
2022-08-26T03:10:08.852Z,26.37
2022-08-26T03:12:36.186Z,26.38
2022-08-26T03:15:03.518Z,26.37
2022-08-26T03:17:47.596Z,26.35
2022-08-26T03:20:17.342Z,26.35
2022-08-26T03:22:45.405Z,26.41
2022-08-26T03:25:15.968Z,26.37
2022-08-26T03:27:43.297Z,26.35
2022-08-26T03:30:31.324Z,26.32
2022-08-26T03:32:59.058Z,26.28
2022-08-26T03:35:26.199Z,26.29
2022-08-26T03:37:53.846Z,26.28
2022-08-26T03:40:21.500Z,26.20
2022-08-26T03:42:50.158Z,26.17
2022-08-26T03:45:18.963Z,26.19
2022-08-26T03:47:47.442Z,26.19
2022-08-26T03:50:22.602Z,26.17
2022-08-26T03:52:52.469Z,26.18
2022-08-26T03:55:26.220Z,26.12
2022-08-26T03:57:54.673Z,26.11
2022-08-26T04:00:22.858Z,26.11
2022-08-26T04:03:00.997Z,26.09
2022-08-26T04:05:28.334Z,26.06
2022-08-26T04:07:55.161Z,26.06
2022-08-26T04:10:29.084Z,26.03
2022-08-26T04:13:06.164Z,26.00
2022-08-26T04:15:33.114Z,25.96
2022-08-26T04:18:00.701Z,25.87
2022-08-26T04:20:28.411Z,25.81
2022-08-26T04:22:55.213Z,25.80
2022-08-26T04:25:22.521Z,25.86
2022-08-26T04:27:51.327Z,25.71
2022-08-26T04:30:19.931Z,25.69
2022-08-26T04:32:46.759Z,25.69
2022-08-26T04:35:13.521Z,25.68
2022-08-26T04:37:42.662Z,25.69
2022-08-26T04:40:11.173Z,25.70
2022-08-26T04:42:38.120Z,25.69
2022-08-26T04:45:10.138Z,25.68
2022-08-26T04:47:38.643Z,25.67
2022-08-26T04:50:07.709Z,25.62
2022-08-26T04:52:36.512Z,25.53
2022-08-26T04:55:04.797Z,25.56
2022-08-26T04:57:33.869Z,25.56
2022-08-26T05:00:00.653Z,25.57
2022-08-26T05:02:28.110Z,25.51
2022-08-26T05:04:54.914Z,25.52
2022-08-26T05:07:21.695Z,25.59
2022-08-26T05:09:49.226Z,25.60
2022-08-26T05:12:16.004Z,25.64
2022-08-26T05:14:43.376Z,25.68
2022-08-26T05:17:10.257Z,25.72
2022-08-26T05:19:42.856Z,25.75
2022-08-26T05:22:09.977Z,25.79
2022-08-26T05:24:41.126Z,25.88
2022-08-26T05:27:11.684Z,25.92
2022-08-26T05:29:39.607Z,25.90
2022-08-26T05:32:07.031Z,25.96
2022-08-26T05:34:34.144Z,26.05
2022-08-26T05:37:01.840Z,26.05
2022-08-26T05:39:29.252Z,26.15
2022-08-26T05:41:56.182Z,26.18
2022-08-26T05:44:23.621Z,26.21
2022-08-26T05:46:51.588Z,26.21
2022-08-26T05:49:18.646Z,26.23
2022-08-26T05:51:47.463Z,26.28
2022-08-26T05:54:21.747Z,26.40
2022-08-26T05:56:49.632Z,26.45
2022-08-26T05:59:24.226Z,26.43
2022-08-26T06:01:53.491Z,26.50
2022-08-26T06:04:21.644Z,26.55
2022-08-26T06:06:48.550Z,26.60
2022-08-26T06:09:17.476Z,26.61
2022-08-26T06:11:45.196Z,26.69
2022-08-26T06:14:12.393Z,26.71
2022-08-26T06:16:45.018Z,26.76
2022-08-26T06:19:15.510Z,26.80
2022-08-26T06:21:47.339Z,26.85
2022-08-26T06:24:36.793Z,26.90
2022-08-26T06:27:09.575Z,26.96
2022-08-26T06:29:38.645Z,27.03
2022-08-26T06:32:06.723Z,27.06
2022-08-26T06:34:33.809Z,27.10
2022-08-26T06:37:06.360Z,27.20
2022-08-26T06:39:33.492Z,27.25
2022-08-26T06:42:02.749Z,27.30
2022-08-26T06:44:30.560Z,27.36
2022-08-26T06:46:59.197Z,27.44
2022-08-26T06:49:27.501Z,27.51
2022-08-26T06:51:58.395Z,27.55
2022-08-26T06:54:26.497Z,27.65
2022-08-26T06:56:53.798Z,27.72
2022-08-26T06:59:21.748Z,27.77
2022-08-26T07:01:49.774Z,27.84
2022-08-26T07:04:21.981Z,27.91
2022-08-26T07:06:52.908Z,27.97
2022-08-26T07:09:27.036Z,28.05
2022-08-26T07:11:56.352Z,28.09
2022-08-26T07:14:24.345Z,28.17
2022-08-26T07:16:51.720Z,28.22
2022-08-26T07:19:29.928Z,28.29
2022-08-26T07:22:05.075Z,28.40
2022-08-26T07:24:35.214Z,28.48
2022-08-26T07:27:06.725Z,28.54
2022-08-26T07:29:35.576Z,28.64
2022-08-26T07:32:03.495Z,28.69
2022-08-26T07:34:32.262Z,28.78
2022-08-26T07:37:00.532Z,28.84
2022-08-26T07:39:28.216Z,28.94
2022-08-26T07:41:59.225Z,29.02
2022-08-26T07:44:27.746Z,29.12
2022-08-26T07:46:54.927Z,29.20
2022-08-26T07:49:24.465Z,29.29
2022-08-26T07:51:53.836Z,29.38
2022-08-26T07:54:27.097Z,29.46
2022-08-26T07:56:54.618Z,29.56
2022-08-26T07:59:23.742Z,29.64
2022-08-26T08:01:51.107Z,29.75
2022-08-26T08:04:25.516Z,29.84
2022-08-26T08:06:54.412Z,29.93
2022-08-26T08:09:22.513Z,30.00
2022-08-26T08:11:49.839Z,30.11
2022-08-26T08:14:19.670Z,30.20
2022-08-26T08:16:53.611Z,30.29
2022-08-26T08:19:21.924Z,30.39
2022-08-26T08:21:49.177Z,30.50
2022-08-26T08:24:16.049Z,30.59
2022-08-26T08:26:42.885Z,30.69
2022-08-26T08:29:09.787Z,30.79
2022-08-26T08:34:26.600Z,31.02
2022-08-26T08:36:54.379Z,31.13
2022-08-26T08:39:22.182Z,31.22
2022-08-26T08:42:23.663Z,31.34
2022-08-26T08:44:56.991Z,31.46
2022-08-26T08:47:42.808Z,31.56
2022-08-26T08:50:21.429Z,31.67
2022-08-26T08:53:11.118Z,31.80
2022-08-26T08:56:03.223Z,31.91
2022-08-26T08:59:07.831Z,32.00
2022-08-26T09:02:22.338Z,32.11
2022-08-26T09:04:52.257Z,32.18
2022-08-26T09:07:27.191Z,32.28
2022-08-26T09:10:25.997Z,32.41
2022-08-26T09:12:52.901Z,32.50
2022-08-26T09:15:30.466Z,32.63
2022-08-26T09:18:11.050Z,32.73
2022-08-26T09:21:03.550Z,32.84
2022-08-26T09:23:35.789Z,32.94
2022-08-26T09:26:42.386Z,33.07
2022-08-26T09:29:23.647Z,33.19
2022-08-26T09:31:53.176Z,33.28
2022-08-26T09:34:25.481Z,33.38
2022-08-26T09:37:00.365Z,33.48
2022-08-26T09:39:37.704Z,33.55
2022-08-26T09:42:07.681Z,33.64
2022-08-26T09:44:56.759Z,33.78
2022-08-26T09:47:32.120Z,33.87
2022-08-26T09:50:33.200Z,34.02
2022-08-26T09:53:12.891Z,34.12
2022-08-26T09:55:47.609Z,34.22
2022-08-26T09:58:37.934Z,34.34
2022-08-26T10:01:23.757Z,34.42
2022-08-26T10:03:51.814Z,34.50
2022-08-26T10:06:21.194Z,34.50
2022-08-26T10:08:54.925Z,34.44
2022-08-26T10:11:45.769Z,34.36
2022-08-26T10:14:53.417Z,34.28
2022-08-26T10:17:30.826Z,34.19
2022-08-26T10:20:23.103Z,34.13
2022-08-26T10:23:14.809Z,34.11
2022-08-26T10:26:24.877Z,34.13
2022-08-26T10:29:12.234Z,34.14
2022-08-26T10:32:02.558Z,34.15
2022-08-26T10:34:33.255Z,34.18
2022-08-26T10:37:22.712Z,34.20
2022-08-26T10:39:58.881Z,34.21
2022-08-26T10:42:37.444Z,34.27
2022-08-26T10:45:25.123Z,34.34
2022-08-26T10:48:10.861Z,34.41
2022-08-26T10:50:43.855Z,34.46
2022-08-26T10:53:24.986Z,34.53
2022-08-26T10:56:49.431Z,34.67
2022-08-26T11:00:36.436Z,34.75
2022-08-26T11:03:29.372Z,34.84
2022-08-26T11:06:27.465Z,34.97
2022-08-26T11:09:03.603Z,34.99
2022-08-26T11:11:39.400Z,35.06
2022-08-26T11:14:08.421Z,35.09
2022-08-26T11:16:47.869Z,35.14
2022-08-26T11:20:02.235Z,35.13
2022-08-26T11:22:47.377Z,35.11
2022-08-26T11:25:19.465Z,35.09
2022-08-26T11:27:52.261Z,34.99
2022-08-26T11:30:20.168Z,34.94
2022-08-26T11:32:57.167Z,34.97
2022-08-26T11:35:24.493Z,34.96
2022-08-26T11:37:57.284Z,34.98
2022-08-26T11:40:30.502Z,34.97
2022-08-26T11:43:07.191Z,34.93
2022-08-26T11:45:39.307Z,34.90
2022-08-26T11:48:21.852Z,34.83
2022-08-26T11:51:20.462Z,34.76
2022-08-26T11:53:47.485Z,34.69
2022-08-26T11:56:31.619Z,34.65
2022-08-26T11:59:07.324Z,34.58
2022-08-26T12:01:41.561Z,34.50
2022-08-26T12:04:26.874Z,34.50
2022-08-26T12:06:54.665Z,34.40
2022-08-26T12:09:34.449Z,34.40
2022-08-26T12:12:37.296Z,34.38
2022-08-26T12:15:17.004Z,34.35
2022-08-26T12:17:49.424Z,34.35
2022-08-26T12:20:53.958Z,34.38
2022-08-26T12:23:36.539Z,34.37
2022-08-26T12:26:23.545Z,34.36
2022-08-26T12:29:26.446Z,34.39
2022-08-26T12:32:17.645Z,34.44
2022-08-26T12:34:48.996Z,34.55
2022-08-26T12:37:16.407Z,34.61
2022-08-26T12:39:45.833Z,34.67
2022-08-26T12:42:12.558Z,34.74
2022-08-26T12:44:58.449Z,34.77
2022-08-26T12:47:42.492Z,34.79
2022-08-26T12:50:10.570Z,34.86
2022-08-26T12:52:56.242Z,34.94
2022-08-26T12:55:36.304Z,35.00
2022-08-26T12:58:18.379Z,35.08
2022-08-26T13:00:58.389Z,35.17
2022-08-26T13:03:36.946Z,35.27
2022-08-26T13:06:31.155Z,35.41
2022-08-26T13:09:06.324Z,35.55
2022-08-26T13:11:38.984Z,35.69
2022-08-26T13:14:24.979Z,35.82
2022-08-26T13:16:53.386Z,35.94
2022-08-26T13:19:24.010Z,36.07
2022-08-26T13:22:00.629Z,36.19
2022-08-26T13:24:44.044Z,36.30
2022-08-26T13:27:14.230Z,36.35
2022-08-26T13:29:41.606Z,36.40
2022-08-26T13:32:09.767Z,36.49
2022-08-26T13:34:38.103Z,36.56
2022-08-26T13:37:06.608Z,36.64
2022-08-26T13:39:33.676Z,36.69
2022-08-26T13:42:00.505Z,36.74
2022-08-26T13:44:27.718Z,36.75
2022-08-26T13:46:54.722Z,36.82
2022-08-26T13:49:22.504Z,36.87
2022-08-26T13:51:49.368Z,36.92
2022-08-26T13:54:16.284Z,36.95
2022-08-26T13:56:43.384Z,36.98
2022-08-26T13:59:11.121Z,37.04
2022-08-26T14:01:40.048Z,37.05
2022-08-26T14:04:08.016Z,37.08
2022-08-26T14:06:34.870Z,37.11
2022-08-26T14:09:01.760Z,37.11
2022-08-26T14:11:29.588Z,37.09
2022-08-26T14:14:05.864Z,37.08
2022-08-26T14:16:37.727Z,37.07
2022-08-26T14:19:24.591Z,37.07
2022-08-26T14:21:51.520Z,37.07
2022-08-26T14:24:18.349Z,37.06
2022-08-26T14:26:45.125Z,37.07
2022-08-26T14:29:14.726Z,37.06
2022-08-26T14:31:43.958Z,37.06
2022-08-26T14:34:14.075Z,37.05
2022-08-26T14:36:41.008Z,37.03
2022-08-26T14:39:12.871Z,37.04
2022-08-26T14:41:55.160Z,37.04
2022-08-26T14:44:32.764Z,37.04
2022-08-26T14:47:02.418Z,37.02
2022-08-26T14:49:31.069Z,37.01
2022-08-26T14:51:58.120Z,37.01
2022-08-26T14:54:24.985Z,37.01
2022-08-26T14:56:53.938Z,37.01
2022-08-26T14:59:25.370Z,37.00
2022-08-26T15:01:53.150Z,37.00
2022-08-26T15:04:20.710Z,36.97
2022-08-26T15:06:48.650Z,36.95
2022-08-26T15:09:16.301Z,36.94
2022-08-26T15:11:43.437Z,36.90
2022-08-26T15:14:19.058Z,36.85
2022-08-26T15:16:53.772Z,36.78
2022-08-26T15:19:21.557Z,36.66
2022-08-26T15:21:49.234Z,36.51
2022-08-26T15:24:19.926Z,36.39
2022-08-26T15:26:48.603Z,36.28
2022-08-26T15:29:16.744Z,36.18
2022-08-26T15:31:43.830Z,36.05
2022-08-26T15:34:16.385Z,35.92
2022-08-26T15:36:46.841Z,35.80
2022-08-26T15:39:17.179Z,35.71
2022-08-26T15:41:44.338Z,35.60
2022-08-26T15:44:12.753Z,35.52
2022-08-26T15:46:40.247Z,35.46
2022-08-26T15:49:07.668Z,35.38
2022-08-26T15:51:45.088Z,35.29
2022-08-26T15:54:15.883Z,35.22
2022-08-26T15:56:43.575Z,35.15
2022-08-26T15:59:11.704Z,35.10
2022-08-26T16:01:39.720Z,35.01
2022-08-26T16:04:07.314Z,34.94
2022-08-26T16:06:38.734Z,34.89
2022-08-26T16:09:06.911Z,34.79
2022-08-26T16:11:35.941Z,34.74
2022-08-26T16:14:04.483Z,34.66
2022-08-26T16:16:32.111Z,34.61
2022-08-26T16:19:00.562Z,34.53
2022-08-26T16:21:32.029Z,34.47
2022-08-26T16:23:59.810Z,34.48
2022-08-26T16:26:33.035Z,34.41
2022-08-26T16:29:02.542Z,34.17
2022-08-26T16:31:29.734Z,34.04
2022-08-26T16:33:56.752Z,33.63
2022-08-26T16:36:23.610Z,33.51
2022-08-26T16:38:56.338Z,33.33
2022-08-26T16:41:30.434Z,33.07
2022-08-26T16:43:57.723Z,32.94
2022-08-26T16:46:26.168Z,32.80
2022-08-26T16:48:55.944Z,32.68
2022-08-26T16:51:26.873Z,32.55
2022-08-26T16:53:56.161Z,32.40
2022-08-26T16:56:30.672Z,32.33
2022-08-26T16:59:03.298Z,32.21
2022-08-26T17:01:30.368Z,32.17
2022-08-26T17:03:57.240Z,31.94
2022-08-26T17:06:24.143Z,31.90
2022-08-26T17:08:51.491Z,31.80
2022-08-26T17:11:18.595Z,31.63
2022-08-26T17:13:45.438Z,31.44
2022-08-26T17:16:13.471Z,31.40
2022-08-26T17:18:40.648Z,31.22
2022-08-26T17:21:11.617Z,30.99
2022-08-26T17:23:40.911Z,30.89
2022-08-26T17:26:08.490Z,30.77
2022-08-26T17:28:36.074Z,30.59
2022-08-26T17:31:04.258Z,30.49
2022-08-26T17:33:32.481Z,30.38
2022-08-26T17:36:00.642Z,30.25
2022-08-26T17:38:29.027Z,30.18
2022-08-26T17:40:57.626Z,30.05
2022-08-26T17:43:27.161Z,30.02
2022-08-26T17:46:07.038Z,29.97
2022-08-26T17:48:36.733Z,29.87
2022-08-26T17:51:23.372Z,29.84
2022-08-26T17:53:52.150Z,29.84
2022-08-26T17:56:25.402Z,29.77
2022-08-26T17:58:56.489Z,29.72
2022-08-26T18:01:27.061Z,29.72
2022-08-26T18:04:00.114Z,29.69
2022-08-26T18:06:30.226Z,29.70
2022-08-26T18:08:58.041Z,29.73
2022-08-26T18:11:25.368Z,29.73
2022-08-26T18:13:53.151Z,29.79
2022-08-26T18:16:20.518Z,29.79
2022-08-26T18:18:51.906Z,29.82
2022-08-26T18:21:23.751Z,29.85
2022-08-26T18:23:53.090Z,29.84
2022-08-26T18:26:25.954Z,29.82
2022-08-26T18:28:53.394Z,29.70
2022-08-26T18:31:21.066Z,29.77
2022-08-26T18:33:48.316Z,29.68
2022-08-26T18:36:29.419Z,29.74
2022-08-26T18:38:57.275Z,29.75
2022-08-26T18:41:28.661Z,29.71
2022-08-26T18:43:56.665Z,29.61
2022-08-26T18:46:27.840Z,29.61
2022-08-26T18:48:56.502Z,29.59
2022-08-26T18:51:32.369Z,29.51
2022-08-26T18:54:02.896Z,29.52
2022-08-26T18:56:30.716Z,29.48
2022-08-26T18:58:59.709Z,29.44
2022-08-26T19:01:29.441Z,29.33
2022-08-26T19:03:58.789Z,29.33
2022-08-26T19:06:28.369Z,29.27
2022-08-26T19:08:57.863Z,29.25
2022-08-26T19:11:32.285Z,29.18
2022-08-26T19:14:10.178Z,29.16
2022-08-26T19:16:37.646Z,29.11
2022-08-26T19:19:05.485Z,29.05
2022-08-26T19:21:35.043Z,29.06
2022-08-26T19:24:07.128Z,28.98
2022-08-26T19:26:34.384Z,28.96
2022-08-26T19:29:01.654Z,28.91
2022-08-26T19:31:28.546Z,28.88
2022-08-26T19:33:56.571Z,28.84
2022-08-26T19:36:25.861Z,28.81
2022-08-26T19:38:54.422Z,28.74
2022-08-26T19:41:37.183Z,28.71
2022-08-26T19:44:11.554Z,28.72
2022-08-26T19:46:39.855Z,28.63
2022-08-26T19:49:06.824Z,28.68
2022-08-26T19:51:35.523Z,28.65
2022-08-26T19:54:03.137Z,28.65
2022-08-26T19:56:30.269Z,28.65
2022-08-26T19:58:58.006Z,28.61
2022-08-26T20:01:25.670Z,28.56
2022-08-26T20:03:53.069Z,28.54
2022-08-26T20:06:20.319Z,28.50
2022-08-26T20:08:48.200Z,28.48
2022-08-26T20:11:18.906Z,28.46
2022-08-26T20:13:47.334Z,28.44
2022-08-26T20:16:16.353Z,28.39
2022-08-26T20:19:04.035Z,28.27
2022-08-26T20:21:38.131Z,28.29
2022-08-26T20:24:14.187Z,28.31
2022-08-26T20:26:43.553Z,28.21
2022-08-26T20:29:13.341Z,28.23
2022-08-26T20:31:41.124Z,28.21
2022-08-26T20:34:08.097Z,28.18
2022-08-26T20:36:35.061Z,28.17
2022-08-26T20:39:01.920Z,28.14
2022-08-26T20:41:28.856Z,28.16
2022-08-26T20:43:57.005Z,28.17
2022-08-26T20:46:25.417Z,28.17
2022-08-26T20:48:53.884Z,28.19
2022-08-26T20:51:23.491Z,28.21
2022-08-26T20:53:51.109Z,28.26
2022-08-26T20:56:23.685Z,28.21
2022-08-26T20:58:54.200Z,28.23
2022-08-26T21:01:28.198Z,28.22
2022-08-26T21:03:57.005Z,28.18
2022-08-26T21:06:23.881Z,28.14
2022-08-26T21:08:50.950Z,28.13
2022-08-26T21:11:18.820Z,28.11
2022-08-26T21:14:04.516Z,28.09
2022-08-26T21:16:36.601Z,28.13
2022-08-26T21:19:06.640Z,28.11
2022-08-26T21:21:34.251Z,28.07
2022-08-26T21:24:01.179Z,28.01
2022-08-26T21:26:28.005Z,27.97
2022-08-26T21:28:54.970Z,27.93
2022-08-26T21:31:25.643Z,27.92
2022-08-26T21:33:53.212Z,27.90
2022-08-26T21:36:20.650Z,27.78
2022-08-26T21:38:48.009Z,27.68
2022-08-26T21:41:19.360Z,27.65
2022-08-26T21:43:48.860Z,27.62
2022-08-26T21:46:19.922Z,27.56
2022-08-26T21:49:00.254Z,27.45
2022-08-26T21:51:32.065Z,27.46
2022-08-26T21:54:00.854Z,27.47
2022-08-26T21:56:32.363Z,27.40
2022-08-26T21:59:00.611Z,27.35
2022-08-26T22:01:34.645Z,27.35
2022-08-26T22:04:03.990Z,27.34
2022-08-26T22:06:33.701Z,27.30
2022-08-26T22:09:01.285Z,27.28
2022-08-26T22:11:29.232Z,27.22
2022-08-26T22:13:56.930Z,27.24
2022-08-26T22:16:26.664Z,27.15
2022-08-26T22:18:54.703Z,27.12
2022-08-26T22:21:25.953Z,27.12
2022-08-26T22:23:58.037Z,27.13
2022-08-26T22:26:29.919Z,27.13
2022-08-26T22:28:59.535Z,27.13
2022-08-26T22:31:37.410Z,27.11
2022-08-26T22:34:08.805Z,27.10
2022-08-26T22:36:44.001Z,27.11
2022-08-26T22:39:14.451Z,27.11
2022-08-26T22:41:43.453Z,27.13
2022-08-26T22:44:12.218Z,27.13
2022-08-26T22:46:41.599Z,27.12
2022-08-26T22:49:12.391Z,27.14
2022-08-26T22:51:39.305Z,27.17
2022-08-26T22:54:06.523Z,27.15
2022-08-26T22:56:34.069Z,27.14
2022-08-26T22:59:00.986Z,27.17
2022-08-26T23:01:27.861Z,27.15
2022-08-26T23:03:54.674Z,27.18
2022-08-26T23:06:21.775Z,27.13
2022-08-26T23:08:49.308Z,27.15
2022-08-26T23:11:16.143Z,27.17
2022-08-26T23:13:43.039Z,27.15
2022-08-26T23:16:12.274Z,27.14
2022-08-26T23:18:40.832Z,27.14
2022-08-26T23:21:08.295Z,27.13
2022-08-26T23:23:35.575Z,27.17
2022-08-26T23:26:05.932Z,27.15
2022-08-26T23:28:35.092Z,27.13
2022-08-26T23:31:02.040Z,27.12
2022-08-26T23:33:49.125Z,27.14
2022-08-26T23:36:18.170Z,27.13
2022-08-26T23:38:48.127Z,27.14
2022-08-26T23:41:22.044Z,27.11
2022-08-26T23:43:49.985Z,27.07
2022-08-26T23:46:17.536Z,27.07
2022-08-26T23:48:44.893Z,27.04
2022-08-26T23:51:31.053Z,26.98
2022-08-26T23:53:58.163Z,26.96
2022-08-26T23:56:26.569Z,26.98
2022-08-26T23:58:54.249Z,26.97
